Time;durP1;ratioP1;P1;durP2;ratioP2;P2;SDS_P1;SDS_P2;PMS_P1;PMS_P2;Temp;Humidity;BMP_temperature;BMP_pressure;BME280_temperature;BME280_humidity;BME280_pressure;Samples;Min_cycle;Max_cycle;Signal;HPM_P1;HPM_P2
2021/04/17 00:00:31;;;;;;;11.32;7.30;;;4.00;99.90;;;;;;5099207;28;20071;-69
2021/04/17 00:02:58;;;;;;;12.20;5.95;;;4.00;99.90;;;;;;5095071;28;20052;-69
2021/04/17 00:05:24;;;;;;;7.30;5.00;;;3.90;99.90;;;;;;5112610;27;20100;-70
2021/04/17 00:07:51;;;;;;;6.90;4.45;;;3.80;99.90;;;;;;5092870;28;20047;-68
2021/04/17 00:10:18;;;;;;;7.50;4.78;;;3.70;99.90;;;;;;5103607;28;20060;-69
2021/04/17 00:12:44;;;;;;;10.43;5.35;;;3.50;99.90;;;;;;5102458;28;20035;-69
2021/04/17 00:15:11;;;;;;;9.18;6.07;;;3.40;99.90;;;;;;5105220;28;20048;-69
2021/04/17 00:17:38;;;;;;;12.52;7.03;;;3.30;99.90;;;;;;5102262;28;20097;-69
2021/04/17 00:20:06;;;;;;;12.82;7.90;;;3.20;99.90;;;;;;5092817;28;20115;-69
2021/04/17 00:22:32;;;;;;;13.68;7.75;;;3.10;99.90;;;;;;5099563;28;20047;-68
2021/04/17 00:24:59;;;;;;;13.77;7.30;;;3.10;99.90;;;;;;5098109;28;20051;-68
2021/04/17 00:27:25;;;;;;;11.23;7.43;;;3.00;99.90;;;;;;5098978;28;20067;-69
2021/04/17 00:29:51;;;;;;;13.68;6.28;;;2.90;99.90;;;;;;5101471;28;20063;-68
2021/04/17 00:32:18;;;;;;;10.85;6.38;;;2.90;99.90;;;;;;5089821;28;20054;-69
2021/04/17 00:34:45;;;;;;;10.45;6.00;;;2.80;99.90;;;;;;5097987;28;20094;-69
2021/04/17 00:37:11;;;;;;;8.93;5.85;;;2.80;99.90;;;;;;5105223;28;20102;-69
2021/04/17 00:39:38;;;;;;;10.15;4.93;;;2.70;99.90;;;;;;5090515;28;20040;-69
2021/04/17 00:42:05;;;;;;;10.95;5.53;;;2.70;99.90;;;;;;5101134;28;20058;-69
2021/04/17 00:44:34;;;;;;;12.27;5.15;;;2.50;99.90;;;;;;5089253;28;20101;-69
2021/04/17 00:47:01;;;;;;;10.43;5.28;;;2.40;99.90;;;;;;5103844;28;20490;-69
2021/04/17 00:49:27;;;;;;;8.52;5.63;;;2.30;99.90;;;;;;5102192;28;20044;-69
2021/04/17 00:51:54;;;;;;;9.80;5.90;;;2.20;99.90;;;;;;5094487;28;20493;-69
2021/04/17 00:54:20;;;;;;;10.63;5.50;;;2.20;99.90;;;;;;5095945;28;20128;-68
2021/04/17 00:56:46;;;;;;;6.93;4.20;;;2.10;99.90;;;;;;5102913;28;20073;-68
2021/04/17 00:59:13;;;;;;;10.73;4.68;;;2.10;99.90;;;;;;5102415;28;20044;-68
2021/04/17 01:01:39;;;;;;;8.38;4.88;;;2.00;99.90;;;;;;5102892;28;20048;-69
2021/04/17 01:04:30;;;;;;;8.75;4.47;;;1.90;99.90;;;;;;5100363;28;20047;-69
2021/04/17 01:07:03;;;;;;;8.18;4.40;;;1.80;99.90;;;;;;5092426;28;20062;-69
2021/04/17 01:09:38;;;;;;;9.90;4.75;;;1.80;99.90;;;;;;5097433;28;20513;-68
2021/04/17 01:12:10;;;;;;;10.55;5.47;;;1.80;99.90;;;;;;5100214;28;20047;-68
2021/04/17 01:14:37;;;;;;;11.18;5.28;;;1.60;99.90;;;;;;5105632;28;20039;-68
2021/04/17 01:17:07;;;;;;;8.73;4.88;;;1.50;99.90;;;;;;5104681;28;20107;-68
2021/04/17 01:19:39;;;;;;;9.23;5.28;;;1.40;99.90;;;;;;5106657;28;20097;-69
2021/04/17 01:22:08;;;;;;;10.83;5.50;;;1.30;99.90;;;;;;5104540;28;20054;-68
2021/04/17 01:24:36;;;;;;;10.57;5.43;;;1.20;99.90;;;;;;5096353;28;20062;-69
2021/04/17 01:27:07;;;;;;;9.70;5.20;;;1.30;99.90;;;;;;5104112;28;20108;-68
2021/04/17 01:29:36;;;;;;;7.75;5.00;;;1.30;99.90;;;;;;5100240;28;20059;-68
2021/04/17 01:32:04;;;;;;;8.93;4.97;;;1.30;99.90;;;;;;5107350;28;20027;-69
2021/04/17 01:34:31;;;;;;;13.32;4.55;;;1.30;99.90;;;;;;5109089;28;20052;-68
2021/04/17 01:36:59;;;;;;;7.13;4.22;;;1.40;99.90;;;;;;5089625;28;20454;-68
2021/04/17 01:39:28;;;;;;;8.93;4.85;;;1.40;99.90;;;;;;5108092;28;20075;-69
2021/04/17 01:42:04;;;;;;;10.25;4.65;;;1.30;99.90;;;;;;5102460;28;20048;-68
2021/04/17 01:44:34;;;;;;;10.25;5.28;;;1.10;99.90;;;;;;5100843;28;20389;-69
2021/04/17 01:47:04;;;;;;;9.00;4.97;;;1.00;99.90;;;;;;5103873;28;20101;-69
2021/04/17 01:49:35;;;;;;;7.22;5.00;;;1.00;99.90;;;;;;5100412;28;20160;-69
2021/04/17 01:52:03;;;;;;;7.25;4.68;;;0.90;99.90;;;;;;5102856;28;20118;-69
2021/04/17 01:54:37;;;;;;;10.45;5.25;;;0.80;99.90;;;;;;5095937;28;20073;-68
2021/04/17 01:57:04;;;;;;;9.15;4.70;;;0.80;99.90;;;;;;5083918;28;20090;-69
2021/04/17 01:59:34;;;;;;;6.13;3.88;;;0.90;99.90;;;;;;5104013;28;20040;-69
2021/04/17 02:02:01;;;;;;;8.02;4.47;;;0.80;99.90;;;;;;5118906;27;20142;-68
2021/04/17 02:04:28;;;;;;;7.82;4.43;;;0.70;99.90;;;;;;5113774;27;20050;-69
2021/04/17 02:06:54;;;;;;;7.50;4.22;;;0.70;99.90;;;;;;5102268;28;20093;-68
2021/04/17 02:09:20;;;;;;;8.43;4.80;;;0.70;99.90;;;;;;5085350;28;20066;-68
2021/04/17 02:11:47;;;;;;;7.57;4.40;;;0.70;99.90;;;;;;5090977;28;20112;-68
2021/04/17 02:14:13;;;;;;;7.97;4.75;;;0.70;99.90;;;;;;5092022;28;20031;-68
2021/04/17 02:17:16;;;;;;;8.68;4.45;;;0.80;99.90;;;;;;5106418;27;20493;-69
2021/04/17 02:19:56;;;;;;;7.15;3.70;;;0.70;99.90;;;;;;5105017;28;20102;-69
2021/04/17 02:22:24;;;;;;;6.85;3.30;;;0.70;99.90;;;;;;5103842;28;20040;-69
2021/04/17 02:24:52;;;;;;;7.68;3.70;;;0.60;99.90;;;;;;5101687;28;20361;-69
2021/04/17 02:27:19;;;;;;;5.03;3.10;;;0.50;99.90;;;;;;5100216;28;20084;-69
2021/04/17 02:29:56;;;;;;;7.00;4.03;;;0.50;99.90;;;;;;5105560;28;20103;-69
2021/04/17 02:32:23;;;;;;;6.88;3.75;;;0.50;99.90;;;;;;5106354;28;20035;-69
2021/04/17 02:34:51;;;;;;;6.57;3.25;;;0.50;99.90;;;;;;5099024;28;20105;-68
2021/04/17 02:37:18;;;;;;;6.55;3.53;;;0.70;99.90;;;;;;5111911;27;20040;-69
2021/04/17 02:39:44;;;;;;;7.70;3.40;;;0.60;99.90;;;;;;5101224;28;20498;-69
2021/04/17 02:42:13;;;;;;;6.07;3.42;;;0.60;99.90;;;;;;5101646;28;20056;-68
2021/04/17 02:44:40;;;;;;;6.72;3.75;;;0.60;99.90;;;;;;5101969;28;20224;-68
2021/04/17 02:47:07;;;;;;;9.38;4.55;;;0.50;99.90;;;;;;5102008;28;20048;-68
2021/04/17 02:49:34;;;;;;;7.40;4.10;;;0.50;99.90;;;;;;5095463;28;20106;-68
2021/04/17 02:52:00;;;;;;;10.13;4.70;;;0.40;99.90;;;;;;5102049;28;20119;-67
2021/04/17 02:54:27;;;;;;;10.65;5.03;;;1.10;99.90;;;;;;5102888;28;20139;-68
2021/04/17 02:56:54;;;;;;;8.00;4.30;;;0.50;99.90;;;;;;5101356;28;20088;-68
2021/04/17 02:59:20;;;;;;;8.60;4.50;;;0.70;99.90;;;;;;5103416;27;20051;-68
2021/04/17 03:01:47;;;;;;;10.38;4.35;;;0.60;99.90;;;;;;5090312;28;20043;-68
2021/04/17 03:04:13;;;;;;;8.68;4.38;;;0.60;99.90;;;;;;5111269;27;20036;-68
2021/04/17 03:06:40;;;;;;;10.30;5.05;;;0.50;99.90;;;;;;5103596;28;20054;-68
2021/04/17 03:09:07;;;;;;;10.30;4.70;;;0.50;99.90;;;;;;5109603;28;20128;-68
2021/04/17 03:11:34;;;;;;;8.82;4.93;;;0.50;99.90;;;;;;5104575;28;20039;-68
2021/04/17 03:14:00;;;;;;;7.20;4.30;;;0.50;99.90;;;;;;5102984;28;20044;-68
2021/04/17 03:16:27;;;;;;;11.65;4.97;;;0.50;99.90;;;;;;5100022;28;20057;-68
2021/04/17 03:18:54;;;;;;;8.73;4.95;;;0.60;99.90;;;;;;5106138;28;20032;-68
2021/04/17 03:21:20;;;;;;;12.00;6.22;;;0.70;99.90;;;;;;5091202;28;20585;-68
2021/04/17 03:23:47;;;;;;;11.15;6.15;;;0.70;99.90;;;;;;5104265;28;20535;-67
2021/04/17 03:26:13;;;;;;;10.23;4.60;;;0.80;99.90;;;;;;5098044;28;20040;-69
2021/04/17 03:28:40;;;;;;;10.10;5.00;;;0.70;99.90;;;;;;5096821;28;20135;-68
2021/04/17 03:31:06;;;;;;;8.23;5.47;;;0.70;99.90;;;;;;5101126;28;20541;-68
2021/04/17 03:33:33;;;;;;;7.93;4.95;;;0.80;99.90;;;;;;5100902;28;20161;-68
2021/04/17 03:35:59;;;;;;;8.43;5.47;;;0.90;99.90;;;;;;5110016;27;20086;-69
2021/04/17 03:38:26;;;;;;;6.80;4.53;;;0.90;99.90;;;;;;5101853;28;20525;-68
2021/04/17 03:40:52;;;;;;;7.57;3.55;;;1.00;99.90;;;;;;5107160;28;20043;-68
2021/04/17 03:43:19;;;;;;;5.53;3.33;;;1.10;99.90;;;;;;5101359;28;20097;-68
2021/04/17 03:45:45;;;;;;;7.93;3.50;;;1.20;99.90;;;;;;5098225;28;20509;-69
2021/04/17 03:48:12;;;;;;;7.13;3.90;;;1.20;99.90;;;;;;5102362;27;20123;-70
2021/04/17 03:50:38;;;;;;;6.40;3.30;;;1.20;99.90;;;;;;5099902;27;20093;-70
2021/04/17 03:53:05;;;;;;;8.73;4.13;;;1.20;99.90;;;;;;5108696;28;20538;-69
2021/04/17 03:55:31;;;;;;;10.30;4.53;;;1.30;99.90;;;;;;5100006;28;20101;-71
2021/04/17 03:57:57;;;;;;;7.93;5.32;;;1.30;99.90;;;;;;5101578;28;20039;-70
2021/04/17 04:00:24;;;;;;;8.65;4.80;;;1.30;99.90;;;;;;5098622;28;20040;-70
2021/04/17 04:02:51;;;;;;;10.10;5.28;;;1.40;99.90;;;;;;5105711;28;20080;-70
2021/04/17 04:05:18;;;;;;;8.10;5.43;;;1.50;99.90;;;;;;5105910;28;20043;-70
2021/04/17 04:07:44;;;;;;;9.00;4.90;;;1.50;99.90;;;;;;5096035;28;20089;-70
2021/04/17 04:10:12;;;;;;;8.75;5.13;;;1.50;99.90;;;;;;5101072;28;20039;-70
2021/04/17 04:12:44;;;;;;;8.93;5.38;;;1.60;99.90;;;;;;5104428;28;20044;-70
2021/04/17 04:15:12;;;;;;;8.70;5.25;;;1.60;99.90;;;;;;5095689;28;20085;-69
2021/04/17 04:17:40;;;;;;;9.18;4.88;;;1.70;99.90;;;;;;5098011;28;20039;-69
2021/04/17 04:20:08;;;;;;;11.70;5.55;;;1.70;99.90;;;;;;5106431;28;20376;-69
2021/04/17 04:22:35;;;;;;;8.70;5.00;;;1.80;99.90;;;;;;5104158;28;20054;-70
2021/04/17 04:25:04;;;;;;;7.85;4.85;;;1.80;99.90;;;;;;5092479;28;20056;-69
2021/04/17 04:27:31;;;;;;;8.30;4.68;;;1.80;99.90;;;;;;5098931;28;20048;-69
2021/04/17 04:29:57;;;;;;;9.57;5.03;;;1.80;99.90;;;;;;5100445;28;20123;-70
2021/04/17 04:32:24;;;;;;;14.13;5.75;;;1.90;99.90;;;;;;5103406;28;20043;-69
2021/04/17 04:34:50;;;;;;;9.48;6.13;;;1.90;99.90;;;;;;5083991;28;20130;-69
2021/04/17 04:37:17;;;;;;;10.18;4.68;;;1.90;99.90;;;;;;5095296;28;20047;-70
2021/04/17 04:39:43;;;;;;;8.07;5.32;;;1.90;99.90;;;;;;5108966;28;20043;-69
2021/04/17 04:42:10;;;;;;;12.63;4.40;;;1.90;99.90;;;;;;5100272;28;20116;-69
2021/04/17 04:44:37;;;;;;;7.88;4.00;;;2.00;99.90;;;;;;5101688;28;20459;-70
2021/04/17 04:47:05;;;;;;;8.02;4.45;;;2.00;99.90;;;;;;5105715;28;20043;-69
2021/04/17 04:49:32;;;;;;;11.52;5.65;;;2.10;99.90;;;;;;5102249;27;20126;-70
2021/04/17 04:51:58;;;;;;;9.48;5.10;;;2.10;99.90;;;;;;5101817;28;20505;-70
2021/04/17 04:54:25;;;;;;;6.63;4.63;;;2.20;99.90;;;;;;5114755;28;20039;-70
2021/04/17 04:56:55;;;;;;;6.97;4.05;;;2.30;99.90;;;;;;5100822;28;20052;-70
2021/04/17 04:59:21;;;;;;;8.57;3.97;;;2.40;99.90;;;;;;5100406;28;20090;-70
2021/04/17 05:01:47;;;;;;;6.28;4.22;;;2.50;99.90;;;;;;5092712;28;20048;-69
2021/04/17 05:04:14;;;;;;;7.45;4.43;;;2.50;99.90;;;;;;5093609;28;20089;-69
2021/04/17 05:06:41;;;;;;;6.30;2.97;;;2.60;99.90;;;;;;5095762;28;20048;-69
2021/04/17 05:09:07;;;;;;;6.35;3.30;;;2.50;99.90;;;;;;5093626;28;20052;-70
2021/04/17 05:11:34;;;;;;;6.95;3.92;;;2.50;99.90;;;;;;5094530;28;20125;-70
2021/04/17 05:14:01;;;;;;;7.43;3.90;;;2.50;99.90;;;;;;5105820;28;20032;-69
2021/04/17 05:16:27;;;;;;;10.35;3.95;;;2.50;99.90;;;;;;5099939;28;20414;-70
2021/04/17 05:18:54;;;;;;;5.70;3.42;;;2.70;99.90;;;;;;5111953;28;20040;-69
2021/04/17 05:21:20;;;;;;;7.60;3.63;;;2.80;99.90;;;;;;5101589;27;20048;-70
2021/04/17 05:23:58;;;;;;;8.20;4.28;;;2.80;99.90;;;;;;5103713;28;20064;-70
2021/04/17 05:26:24;;;;;;;6.57;4.30;;;2.90;99.90;;;;;;5114175;27;20039;-70
2021/04/17 05:28:51;;;;;;;6.35;3.97;;;3.10;99.90;;;;;;5090871;28;20043;-70
2021/04/17 05:31:17;;;;;;;8.30;4.85;;;3.10;99.90;;;;;;5099171;28;20073;-70
2021/04/17 05:33:44;;;;;;;11.02;5.43;;;3.10;99.90;;;;;;5094296;28;20083;-69
2021/04/17 05:36:11;;;;;;;9.40;4.50;;;3.00;99.90;;;;;;5098809;28;20413;-70
2021/04/17 05:38:37;;;;;;;6.30;3.67;;;3.10;99.90;;;;;;5106835;28;20073;-70
2021/04/17 05:41:04;;;;;;;9.88;4.20;;;3.10;99.90;;;;;;5102111;28;20566;-70
2021/04/17 05:43:31;;;;;;;9.80;5.30;;;3.30;99.90;;;;;;5098417;28;20109;-69
2021/04/17 05:45:57;;;;;;;13.13;6.25;;;3.40;99.90;;;;;;5106516;28;20411;-70
2021/04/17 05:48:24;;;;;;;10.50;5.40;;;3.40;99.90;;;;;;5101681;28;20075;-70
2021/04/17 05:50:50;;;;;;;13.35;5.88;;;3.50;99.90;;;;;;5101844;27;20120;-70
2021/04/17 05:53:17;;;;;;;10.63;5.47;;;3.70;99.90;;;;;;5113225;28;20036;-70
2021/04/17 05:55:43;;;;;;;12.45;4.38;;;4.00;99.90;;;;;;5100250;28;20105;-70
2021/04/17 05:58:09;;;;;;;8.95;4.40;;;4.00;99.90;;;;;;5099646;28;20465;-70
2021/04/17 06:00:36;;;;;;;8.88;4.88;;;4.00;99.90;;;;;;5108208;28;20092;-69
2021/04/17 06:03:04;;;;;;;8.88;4.63;;;4.10;99.90;;;;;;5111063;28;20125;-70
2021/04/17 06:05:31;;;;;;;13.25;5.55;;;4.20;99.90;;;;;;5098588;28;20043;-70
2021/04/17 06:08:02;;;;;;;10.70;4.85;;;4.40;99.90;;;;;;5106741;28;20130;-70
2021/04/17 06:10:29;;;;;;;8.60;4.90;;;4.60;99.90;;;;;;5091840;27;20048;-70
2021/04/17 06:12:55;;;;;;;8.20;5.10;;;4.70;99.90;;;;;;5110941;28;20044;-70
2021/04/17 06:15:22;;;;;;;10.90;5.20;;;4.80;99.90;;;;;;5081568;28;20052;-70
2021/04/17 06:17:48;;;;;;;12.70;5.68;;;4.90;99.90;;;;;;5104994;28;20073;-70
2021/04/17 06:20:15;;;;;;;8.30;4.80;;;5.00;99.90;;;;;;5111419;27;20458;-70
2021/04/17 06:22:41;;;;;;;10.35;5.65;;;5.20;99.90;;;;;;5092239;28;20113;-70
2021/04/17 06:25:10;;;;;;;8.15;4.95;;;5.40;99.90;;;;;;5103056;28;20100;-70
2021/04/17 06:27:36;;;;;;;16.90;8.02;;;5.40;99.90;;;;;;5102630;28;20054;-69
2021/04/17 06:30:04;;;;;;;31.73;16.13;;;5.40;99.90;;;;;;5094678;28;20052;-70
2021/04/17 06:32:30;;;;;;;15.30;7.93;;;5.60;99.90;;;;;;5105252;28;20044;-70
2021/04/17 06:34:57;;;;;;;9.05;4.65;;;5.70;99.90;;;;;;5103117;28;20072;-71
2021/04/17 06:37:23;;;;;;;5.57;3.72;;;6.00;99.90;;;;;;5107125;28;20521;-70
2021/04/17 06:39:50;;;;;;;9.40;3.50;;;6.20;99.90;;;;;;5091526;28;20093;-70
2021/04/17 06:42:19;;;;;;;7.45;3.47;;;6.40;99.90;;;;;;5091963;28;20399;-70
2021/04/17 06:44:47;;;;;;;6.72;3.47;;;6.40;99.90;;;;;;5104118;28;20059;-68
2021/04/17 06:47:17;;;;;;;8.32;3.95;;;6.50;99.90;;;;;;5091337;28;20040;-70
2021/04/17 06:49:44;;;;;;;11.13;3.92;;;6.50;99.90;;;;;;5092317;28;20082;-70
2021/04/17 06:52:14;;;;;;;7.75;3.42;;;6.70;99.90;;;;;;5090830;28;20097;-69
2021/04/17 06:54:42;;;;;;;7.45;3.65;;;6.70;99.90;;;;;;5090864;28;20040;-68
2021/04/17 06:57:08;;;;;;;9.45;4.05;;;6.30;99.90;;;;;;5095124;28;20097;-67
2021/04/17 06:59:35;;;;;;;7.80;3.58;;;6.20;99.90;;;;;;5091729;28;20052;-70
2021/04/17 07:02:02;;;;;;;6.18;3.35;;;6.10;99.90;;;;;;5091225;28;20636;-68
2021/04/17 07:04:29;;;;;;;6.85;3.15;;;6.10;99.90;;;;;;5103567;28;20044;-70
2021/04/17 07:06:56;;;;;;;6.57;3.40;;;6.20;99.90;;;;;;5090528;28;20048;-69
2021/04/17 07:09:23;;;;;;;9.90;3.83;;;6.30;99.90;;;;;;5099542;28;20509;-70
2021/04/17 07:11:49;;;;;;;7.82;3.88;;;6.10;99.90;;;;;;5089604;28;20094;-70
2021/04/17 07:14:17;;;;;;;5.47;3.17;;;6.00;99.90;;;;;;5107531;28;20093;-69
2021/04/17 07:17:04;;;;;;;6.15;3.75;;;6.30;99.90;;;;;;5104318;28;20040;-70
2021/04/17 07:19:43;;;;;;;6.70;2.90;;;6.40;99.90;;;;;;5103963;27;20050;-70
2021/04/17 07:22:16;;;;;;;8.32;3.33;;;6.10;99.90;;;;;;5103477;27;20052;-70
2021/04/17 07:24:44;;;;;;;6.15;3.55;;;6.20;99.90;;;;;;5089697;28;20478;-69
2021/04/17 07:27:29;;;;;;;10.23;3.60;;;6.30;99.90;;;;;;5090649;28;20097;-69
2021/04/17 07:29:56;;;;;;;8.95;3.90;;;6.30;99.90;;;;;;5072891;28;20105;-69
2021/04/17 07:32:23;;;;;;;6.38;3.38;;;6.50;99.90;;;;;;5071557;28;20603;-69
2021/04/17 07:35:05;;;;;;;6.50;3.22;;;6.80;99.90;;;;;;5090277;28;20114;-69
2021/04/17 07:37:32;;;;;;;6.95;3.95;;;7.00;99.90;;;;;;5094856;28;20036;-69
2021/04/17 07:40:17;;;;;;;6.78;3.45;;;7.10;99.90;;;;;;5093699;28;20607;-69
2021/04/17 07:42:46;;;;;;;7.18;3.80;;;7.00;99.90;;;;;;5090500;28;20047;-69
2021/04/17 07:45:27;;;;;;;8.93;4.03;;;7.00;99.90;;;;;;5091029;28;20109;-69
2021/04/17 07:47:59;;;;;;;6.65;3.83;;;7.10;99.90;;;;;;5100253;28;20579;-69
2021/04/17 07:50:34;;;;;;;5.80;3.05;;;7.50;99.90;;;;;;5107721;28;20523;-69
2021/04/17 07:53:01;;;;;;;5.97;3.33;;;7.90;99.90;;;;;;5090880;28;20067;-70
2021/04/17 07:55:32;;;;;;;9.07;3.33;;;8.30;99.90;;;;;;5089301;28;20048;-69
2021/04/17 07:58:04;;;;;;;5.82;3.45;;;8.60;99.90;;;;;;5106735;28;20063;-70
2021/04/17 08:00:31;;;;;;;6.00;3.17;;;9.10;99.90;;;;;;5106643;28;20097;-69
2021/04/17 08:02:57;;;;;;;5.70;3.30;;;9.50;99.90;;;;;;5105420;28;20056;-70
2021/04/17 08:05:27;;;;;;;7.40;3.47;;;10.00;99.90;;;;;;5074381;28;20493;-69
2021/04/17 08:07:55;;;;;;;6.50;3.67;;;10.00;99.90;;;;;;5095222;28;20046;-71
2021/04/17 08:10:22;;;;;;;6.15;3.60;;;9.90;99.90;;;;;;5106080;28;20036;-70
2021/04/17 08:12:49;;;;;;;6.88;3.60;;;9.80;99.90;;;;;;5107148;28;20047;-69
2021/04/17 08:15:18;;;;;;;6.90;3.67;;;9.90;99.90;;;;;;5099972;28;20118;-70
2021/04/17 08:17:45;;;;;;;5.50;3.40;;;10.00;99.90;;;;;;5094425;28;20505;-69
2021/04/17 08:20:15;;;;;;;6.80;3.40;;;10.30;99.90;;;;;;5107444;27;20055;-69
2021/04/17 08:22:44;;;;;;;6.88;3.28;;;10.50;99.90;;;;;;5100140;28;20071;-68
2021/04/17 08:25:12;;;;;;;5.50;3.10;;;10.70;99.90;;;;;;5096341;28;20044;-69
2021/04/17 08:27:39;;;;;;;9.95;3.38;;;10.90;99.90;;;;;;5110594;28;20055;-69
2021/04/17 08:30:07;;;;;;;6.95;3.08;;;11.20;99.90;;;;;;5090214;28;20055;-69
2021/04/17 08:32:34;;;;;;;7.32;3.70;;;11.40;99.90;;;;;;5100722;28;20048;-69
2021/04/17 11:47:17;;;;;;;6.97;2.58;;;15.20;70.50;;;;;;5025265;27;20462;-65
2021/04/17 11:50:30;;;;;;;6.00;2.17;;;13.90;66.70;;;12.07;33.07;97849.09;4908575;27;55600;-65
2021/04/17 11:53:13;;;;;;;7.05;2.35;;;13.00;70.10;;;10.96;33.32;97839.88;4961188;28;20081;-66
2021/04/17 11:55:39;;;;;;;6.10;1.98;;;12.10;67.30;;;11.51;33.54;97837.59;5035168;28;20056;-66
2021/04/17 11:58:06;;;;;;;4.57;2.15;;;12.30;69.30;;;11.68;33.38;97834.28;5019165;28;20042;-66
2021/04/17 12:00:32;;;;;;;7.60;2.38;;;12.50;69.40;;;11.83;33.11;97834.53;5025045;28;20474;-66
2021/04/17 12:03:00;;;;;;;4.35;2.25;;;12.60;68.80;;;12.22;31.93;97841.50;5006656;28;20510;-65
2021/04/17 12:05:27;;;;;;;4.55;1.98;;;13.00;67.50;;;12.29;31.66;97835.13;4907601;28;20130;-66
2021/04/17 12:07:53;;;;;;;3.50;2.10;;;13.10;65.30;;;12.49;31.21;97845.47;4807164;28;20049;-66
2021/04/17 12:10:20;;;;;;;5.05;2.42;;;13.20;64.80;;;12.14;31.25;97836.66;4991220;28;20060;-66
2021/04/17 12:12:47;;;;;;;4.95;2.65;;;13.00;64.30;;;12.47;31.12;97842.09;5039798;28;20050;-65
2021/04/17 12:15:15;;;;;;;7.28;2.63;;;13.00;64.70;;;12.47;31.15;97836.88;5022925;28;20041;-66
2021/04/17 12:17:48;;;;;;;4.22;1.80;;;13.20;64.30;;;12.89;29.73;97824.53;5025998;28;20050;-66
2021/04/17 12:20:15;;;;;;;6.07;2.15;;;13.40;61.80;;;12.50;29.70;97828.94;5022120;28;20445;-66
2021/04/17 12:22:42;;;;;;;5.40;2.35;;;13.40;60.60;;;11.90;30.18;97838.59;5027204;28;20056;-66
2021/04/17 12:25:09;;;;;;;6.82;2.50;;;13.30;59.10;;;12.85;30.63;97838.63;5025075;28;20049;-66
2021/04/17 12:27:37;;;;;;;6.28;2.20;;;13.60;62.20;;;12.73;30.14;97833.06;5024360;28;20124;-66
2021/04/17 12:30:08;;;;;;;7.10;1.88;;;13.60;60.50;;;12.96;29.85;97826.75;5009070;28;20097;-65
2021/04/17 12:32:34;;;;;;;6.78;2.35;;;14.10;59.60;;;12.96;29.34;97812.91;5005173;28;20058;-66
2021/04/17 12:35:01;;;;;;;4.03;1.70;;;14.40;57.50;;;13.17;28.57;97818.81;5016590;28;20479;-65
2021/04/17 12:37:28;;;;;;;4.65;1.85;;;14.80;56.10;;;12.93;28.42;97816.50;5023559;28;20103;-65
2021/04/17 12:39:55;;;;;;;5.68;2.47;;;14.70;54.60;;;12.84;30.09;97822.16;5001743;28;20100;-65
2021/04/17 12:42:21;;;;;;;5.43;2.47;;;14.30;57.50;;;12.73;30.43;97817.44;5024154;28;20103;-65
2021/04/17 12:44:47;;;;;;;6.13;2.20;;;14.40;57.50;;;12.35;30.25;97824.44;5023536;28;20045;-66
2021/04/17 12:47:14;;;;;;;7.43;2.70;;;13.90;57.30;;;12.31;30.02;97825.47;5023002;28;20345;-66
2021/04/17 12:49:41;;;;;;;5.07;2.15;;;13.80;56.60;;;12.35;30.79;97820.06;5032246;28;20410;-66
2021/04/17 12:52:07;;;;;;;5.15;1.75;;;14.00;57.70;;;12.82;30.53;97829.19;5023965;28;20037;-65
2021/04/17 12:54:34;;;;;;;3.75;1.70;;;14.20;58.40;;;12.50;30.89;97830.72;5021604;28;20092;-66
2021/04/17 12:57:01;;;;;;;7.55;1.85;;;14.60;56.80;;;12.56;30.51;97822.59;5025044;28;20049;-66
2021/04/17 12:59:27;;;;;;;4.57;2.45;;;14.40;56.70;;;11.85;30.17;97812.75;5023925;28;20096;-66
2021/04/17 13:01:54;;;;;;;4.22;2.20;;;13.80;55.40;;;12.12;30.82;97815.91;5009439;28;20498;-66
2021/04/17 13:04:23;;;;;;;7.28;2.17;;;14.00;56.40;;;12.33;30.68;97816.69;5011158;28;20061;-66
2021/04/17 13:06:49;;;;;;;8.05;2.70;;;14.10;56.80;;;12.14;31.03;97814.09;5010720;28;20046;-66
2021/04/17 13:09:36;;;;;;;5.85;2.45;;;13.80;56.90;;;12.05;31.85;97811.91;5003735;28;20042;-66
2021/04/17 13:12:03;;;;;;;6.43;2.70;;;13.80;57.80;;;12.24;32.05;97811.06;5008148;28;20044;-65
2021/04/17 13:14:29;;;;;;;5.78;2.33;;;14.10;58.50;;;11.91;31.82;97806.47;5015083;28;20453;-66
2021/04/17 13:16:56;;;;;;;5.53;2.10;;;14.00;57.40;;;12.81;31.66;97804.03;5010453;28;20045;-66
2021/04/17 13:19:25;;;;;;;8.32;2.40;;;14.80;58.20;;;12.31;31.35;97805.50;5011739;28;20068;-66
2021/04/17 13:21:53;;;;;;;6.00;2.15;;;14.60;56.30;;;12.78;30.68;97806.81;5002282;28;20058;-66
2021/04/17 13:24:20;;;;;;;7.78;2.20;;;15.30;55.50;;;12.15;30.92;97804.50;5011152;28;20125;-66
2021/04/17 13:26:46;;;;;;;5.57;2.30;;;14.90;54.50;;;12.50;30.28;97789.06;5002086;28;20066;-65
2021/04/17 13:29:13;;;;;;;5.50;1.75;;;14.90;54.10;;;13.00;28.79;97793.59;5003092;28;20057;-66
2021/04/17 13:31:39;;;;;;;3.90;1.55;;;15.70;51.70;;;13.29;28.12;97791.31;5009900;28;20453;-67
2021/04/17 13:34:06;;;;;;;5.82;2.22;;;16.20;49.90;;;13.80;28.13;97780.00;5010043;28;20050;-66
2021/04/17 13:36:34;;;;;;;4.47;2.38;;;16.90;50.00;;;14.18;27.55;97782.31;5008976;28;20057;-67
2021/04/17 13:39:22;;;;;;;4.40;2.00;;;17.90;48.60;;;13.57;27.11;97777.72;5004110;28;20605;-67
2021/04/17 13:42:10;;;;;;;8.90;1.85;;;17.10;46.60;;;13.88;27.22;97792.63;5008697;28;20034;-67
2021/04/17 13:44:57;;;;;;;4.47;1.52;;;18.00;46.30;;;14.35;27.53;97781.44;5009031;28;20082;-65
2021/04/17 13:47:44;;;;;;;4.03;1.67;;;18.20;46.80;;;15.06;27.50;97786.19;5004014;28;20057;-65
2021/04/17 13:50:16;;;;;;;5.20;2.13;;;18.60;47.70;;;14.22;27.35;97788.22;5005299;28;20034;-65
2021/04/17 13:52:43;;;;;;;4.68;2.00;;;18.20;45.60;;;14.47;28.34;97779.91;5008410;28;20116;-65
2021/04/17 13:55:10;;;;;;;4.68;2.05;;;18.50;47.40;;;14.44;27.75;97775.69;5010462;28;20483;-65
2021/04/17 13:57:37;;;;;;;6.53;1.85;;;19.00;46.10;;;14.80;27.84;97773.75;5025438;28;20099;-65
2021/04/17 14:00:07;;;;;;;5.00;1.88;;;19.20;46.20;;;15.19;27.07;97780.22;5008515;28;20061;-65
2021/04/17 14:02:34;;;;;;;5.40;1.70;;;19.70;44.80;;;15.63;27.62;97779.41;5008700;28;20445;-65
2021/04/17 14:05:00;;;;;;;5.38;2.03;;;20.00;45.70;;;15.54;26.64;97767.72;5011553;28;20042;-65
2021/04/17 14:07:27;;;;;;;5.15;2.00;;;19.90;43.60;;;15.89;26.53;97767.38;5010388;28;20460;-65
2021/04/17 14:09:54;;;;;;;7.22;2.33;;;20.40;43.90;;;15.60;26.48;97771.72;5011188;28;20046;-66
2021/04/17 14:12:21;;;;;;;5.43;1.70;;;20.70;42.70;;;16.71;25.93;97774.44;5009086;28;20057;-65
2021/04/17 14:14:48;;;;;;;4.10;1.63;;;21.30;43.10;;;15.23;26.18;97769.50;5010073;28;20049;-66
2021/04/17 14:17:14;;;;;;;8.93;1.98;;;19.90;41.70;;;15.78;26.20;97770.66;5008684;28;20044;-65
2021/04/17 14:19:42;;;;;;;8.65;1.85;;;20.00;42.40;;;16.56;23.69;97759.72;5008805;28;20068;-65
2021/04/17 14:22:08;;;;;;;7.90;1.75;;;21.20;39.90;;;16.62;24.25;97766.34;5009173;28;20100;-65
2021/04/17 14:24:34;;;;;;;3.92;2.05;;;21.90;39.30;;;15.32;25.72;97764.69;5010762;28;20050;-65
2021/04/17 14:27:02;;;;;;;3.97;1.30;;;20.00;40.00;;;15.19;25.44;97765.41;5009833;28;20056;-65
2021/04/17 14:29:29;;;;;;;4.63;1.55;;;19.60;40.40;;;15.79;24.78;97766.28;5010690;28;20041;-65
2021/04/17 14:31:56;;;;;;;4.55;1.27;;;20.60;39.90;;;15.40;25.09;97763.31;5007937;28;20089;-65
2021/04/17 14:34:23;;;;;;;4.20;1.05;;;20.10;39.30;;;16.07;22.28;97766.25;5010937;28;20046;-65
2021/04/17 14:36:49;;;;;;;5.45;1.10;;;20.80;36.80;;;15.47;23.05;97771.63;5009462;28;20045;-65
2021/04/17 14:39:16;;;;;;;4.25;1.08;;;20.50;36.80;;;15.61;23.61;97774.25;5008765;28;20046;-65
2021/04/17 14:41:43;;;;;;;2.97;1.20;;;20.30;37.60;;;16.28;22.89;97765.84;5009995;28;20266;-66
2021/04/17 14:44:12;;;;;;;4.35;1.05;;;21.00;37.20;;;16.38;22.74;97760.91;5009752;28;20160;-66
2021/04/17 14:46:42;;;;;;;3.88;1.20;;;21.10;37.10;;;16.71;22.75;97756.09;5008947;28;20506;-66
2021/04/17 14:49:10;;;;;;;5.60;1.20;;;21.90;36.90;;;14.86;24.76;97757.72;5008188;28;20128;-65
2021/04/17 14:51:37;;;;;;;3.80;1.10;;;19.40;38.40;;;14.51;26.48;97759.69;5009544;28;20092;-65
2021/04/17 14:54:05;;;;;;;4.40;1.50;;;18.00;41.70;;;13.23;27.39;97752.50;5007959;28;20042;-65
2021/04/17 14:56:39;;;;;;;3.03;1.13;;;15.90;42.60;;;13.01;27.98;97763.16;5008672;28;20049;-65
2021/04/17 14:59:06;;;;;;;5.43;1.52;;;15.40;44.20;;;12.19;28.93;97761.00;5012611;28;20049;-65
2021/04/17 15:01:34;;;;;;;4.53;1.20;;;14.20;45.50;;;12.12;29.47;97763.88;4990733;28;20053;-65
2021/04/17 15:04:04;;;;;;;4.47;1.10;;;14.00;46.50;;;11.47;30.69;97760.66;4999980;28;20053;-65
2021/04/17 15:06:34;;;;;;;4.30;1.00;;;13.30;48.50;;;11.95;30.90;97769.00;5008365;28;20042;-65
2021/04/17 15:09:02;;;;;;;4.95;1.20;;;13.60;49.30;;;11.67;30.34;97764.13;5024495;28;20041;-65
2021/04/17 15:11:29;;;;;;;5.32;1.30;;;13.40;48.20;;;11.46;31.21;97769.38;4992815;28;20521;-65
2021/04/17 15:14:05;;;;;;;4.90;1.50;;;13.30;49.00;;;11.69;30.67;97757.97;5008255;28;20496;-65
2021/04/17 15:16:32;;;;;;;3.83;1.20;;;13.70;48.60;;;12.48;30.14;97765.69;4998456;28;20042;-65
2021/04/17 15:19:03;;;;;;;4.75;1.33;;;14.50;48.40;;;11.87;29.62;97761.53;4993402;28;20081;-64